Time;durP1;ratioP1;P1;durP2;ratioP2;P2;SDS_P1;SDS_P2;PMS_P1;PMS_P2;Temp;Humidity;BMP_temperature;BMP_pressure;BME280_temperature;BME280_humidity;BME280_pressure;Samples;Min_cycle;Max_cycle;Signal;HPM_P1;HPM_P2
2023/09/05 00:01:30;;;;;;;;;;;;;;;;;;5111704;28;20002;-71
2023/09/05 00:03:57;;;;;;;;;;;;;;;;;;5111697;28;20329;-71
2023/09/05 00:06:24;;;;;;;;;;;;;;;;;;5111278;28;19966;-71
2023/09/05 00:11:43;;;;;;;;;;;;;;;;;;5152671;27;20010;-71
2023/09/05 00:14:10;;;;;;;;;;;;;;;;;;5152888;27;19957;-71
2023/09/05 00:16:36;;;;;;;;;;;;;;;;;;5152777;27;19914;-71
2023/09/05 00:19:02;;;;;;;;;;;;;;;;;;5152310;27;19907;-71
2023/09/05 00:21:28;;;;;;;;;;;;;;;;;;5152627;27;19918;-71
2023/09/05 00:24:09;;;;;;;;;;;;;;;;;;5153211;27;20354;-71
2023/09/05 00:29:01;;;;;;;;;;;;;;;;;;5092112;28;19923;-71
2023/09/05 00:32:33;;;;;;;;;;;;;;;;;;5091661;27;19919;-71
2023/09/05 00:34:59;;;;;;;;;;;;;;;;;;5091479;28;20008;-71
2023/09/05 00:37:25;;;;;;;;;;;;;;;;;;5089955;28;19940;-71
2023/09/05 00:39:51;;;;;;;;;;;;;;;;;;5090772;28;19999;-72
2023/09/05 00:42:17;;;;;;;;;;;;;;;;;;5091166;28;19995;-71
2023/09/05 00:45:11;;;;;;;;;;;;;;;;;;5112292;27;19916;-71
2023/09/05 00:47:37;;;;;;;;;;;;;;;;;;5110045;28;20018;-71
2023/09/05 00:50:05;;;;;;;;;;;;;;;;;;5111683;28;19908;-71
2023/09/05 00:53:47;;;;;;;;;;;;;;;;;;5091653;27;19917;-71
2023/09/05 00:56:13;;;;;;;;;;;;;;;;;;5091563;28;19912;-71
2023/09/05 00:58:39;;;;;;;;;;;;;;;;;;5091295;28;20279;-70
2023/09/05 01:01:05;;;;;;;;;;;;;;;;;;5089575;28;20284;-71
2023/09/05 01:06:15;;;;;;;;;;;;;;;;;;5091265;28;19919;-71
2023/09/05 01:08:41;;;;;;;;;;;;;;;;;;5090646;28;19956;-71
2023/09/05 01:11:11;;;;;;;;;;;;;;;;;;5091039;28;19909;-71
2023/09/05 01:16:26;;;;;;;;;;;;;;;;;;5111453;27;19916;-71
2023/09/05 01:18:52;;;;;;;;;;;;;;;;;;5111737;28;20018;-71
2023/09/05 01:25:27;;;;;;;;;;;;;;;;;;5091524;28;19938;-71
2023/09/05 01:30:29;;;;;;;;;;;;;;;;;;5111601;27;20273;-72
2023/09/05 01:32:55;;;;;;;;;;;;;;;;;;5112229;28;20003;-72
2023/09/05 01:35:35;;;;;;;;;;;;;;;;;;5111930;27;19916;-71
2023/09/05 01:41:37;;;;;;;;;;;;;;;;;;5092154;27;20363;-71
2023/09/05 01:44:02;;;;;;;;;;;;;;;;;;5090988;28;20000;-71
2023/09/05 01:46:28;;;;;;;;;;;;;;;;;;5091328;28;20265;-71
2023/09/05 01:48:54;;;;;;;;;;;;;;;;;;5091240;28;20003;-71
2023/09/05 01:51:54;;;;;;;;;;;;;;;;;;5173399;27;20009;-71
2023/09/05 01:54:42;;;;;;;;;;;;;;;;;;5091475;27;19923;-71
2023/09/05 01:57:08;;;;;;;;;;;;;;;;;;5090921;28;20525;-71
2023/09/05 02:01:01;;;;;;;;;;;;;;;;;;5174026;27;20367;-71
2023/09/05 02:04:06;;;;;;;;;;;;;;;;;;5091376;27;19922;-72
2023/09/05 02:06:32;;;;;;;;;;;;;;;;;;5091329;28;20003;-71
2023/09/05 02:08:58;;;;;;;;;;;;;;;;;;5091270;28;19909;-72
2023/09/05 02:11:55;;;;;;;;;;;;;;;;;;5091363;27;19991;-71
2023/09/05 02:14:21;;;;;;;;;;;;;;;;;;5091912;28;19912;-71
2023/09/05 02:16:47;;;;;;;;;;;;;;;;;;5091281;28;20306;-71
2023/09/05 02:19:15;;;;;;;;;;;;;;;;;;5089575;28;20356;-71
2023/09/05 02:21:41;;;;;;;;;;;;;;;;;;5091196;28;19969;-71
2023/09/05 02:24:07;;;;;;;;;;;;;;;;;;5091167;28;20330;-71
2023/09/05 02:29:02;;;;;;;;;;;;;;;;;;5091299;27;19917;-71
2023/09/05 02:31:28;;;;;;;;;;;;;;;;;;5091458;28;20003;-71
2023/09/05 02:36:23;;;;;;;;;;;;;;;;;;5092000;27;19938;-71
2023/09/05 02:40:36;;;;;;;;;;;;;;;;;;5111591;27;19916;-71
2023/09/05 02:46:40;;;;;;;;;;;;;;;;;;5070915;28;19916;-71
2023/09/05 02:49:06;;;;;;;;;;;;;;;;;;5069886;28;19913;-71
2023/09/05 02:53:42;;;;;;;;;;;;;;;;;;5111929;27;19916;-72
2023/09/05 02:56:08;;;;;;;;;;;;;;;;;;5111797;28;20014;-72
2023/09/05 03:05:44;;;;;;;;;;;;;;;;;;5111995;27;20007;-71
2023/09/05 03:08:10;;;;;;;;;;;;;;;;;;5111229;28;20351;-71
2023/09/05 03:10:36;;;;;;;;;;;;;;;;;;5093349;28;19912;-71
2023/09/05 03:13:02;;;;;;;;;;;;;;;;;;5093299;28;19908;-71
2023/09/05 03:15:28;;;;;;;;;;;;;;;;;;5092864;28;19990;-71
2023/09/05 03:19:14;;;;;;;;;;;;;;;;;;5091712;28;20376;-72
2023/09/05 03:21:40;;;;;;;;;;;;;;;;;;5090952;28;19912;-72
2023/09/05 03:24:06;;;;;;;;;;;;;;;;;;5091272;28;19909;-71
2023/09/05 03:27:24;;;;;;;;;;;;;;;;;;5091800;27;19923;-71
2023/09/05 03:29:50;;;;;;;;;;;;;;;;;;5091003;28;19999;-72
2023/09/05 03:33:23;;;;;;;;;;;;;;;;;;5112336;27;19916;-72
2023/09/05 03:35:49;;;;;;;;;;;;;;;;;;5111398;28;20006;-71
2023/09/05 03:38:15;;;;;;;;;;;;;;;;;;5111586;28;19960;-71
2023/09/05 03:40:40;;;;;;;;;;;;;;;;;;5111661;28;19908;-72
2023/09/05 03:43:07;;;;;;;;;;;;;;;;;;5111135;28;19939;-72
2023/09/05 03:45:33;;;;;;;;;;;;;;;;;;5111684;28;19912;-72
2023/09/05 03:48:00;;;;;;;;;;;;;;;;;;5111515;28;19961;-72
2023/09/05 03:50:26;;;;;;;;;;;;;;;;;;5111044;28;19976;-72
2023/09/05 03:54:35;;;;;;;;;;;;;;;;;;5091951;27;19916;-72
2023/09/05 04:00:24;;;;;;;;;;;;;;;;;;5112332;27;20303;-71
2023/09/05 04:03:47;;;;;;;;;;;;;;;;;;5173729;27;19915;-71
2023/09/05 04:07:50;;;;;;;;;;;;;;;;;;5091504;27;20395;-71
2023/09/05 04:10:40;;;;;;;;;;;;;;;;;;5111475;27;20295;-71
2023/09/05 04:13:06;;;;;;;;;;;;;;;;;;5111680;28;20003;-71
2023/09/05 04:15:32;;;;;;;;;;;;;;;;;;5111700;28;20368;-72
2023/09/05 04:17:58;;;;;;;;;;;;;;;;;;5109539;28;19908;-71
2023/09/05 04:20:24;;;;;;;;;;;;;;;;;;5110734;28;19919;-72
2023/09/05 04:24:20;;;;;;;;;;;;;;;;;;5110229;27;20299;-71
2023/09/05 04:26:46;;;;;;;;;;;;;;;;;;5108416;28;19912;-71
2023/09/05 04:34:55;;;;;;;;;;;;;;;;;;5109581;27;19916;-71
2023/09/05 04:38:41;;;;;;;;;;;;;;;;;;5109176;27;19918;-71
2023/09/05 04:43:32;;;;;;;;;;;;;;;;;;5089330;27;19922;-71
2023/09/05 04:45:58;;;;;;;;;;;;;;;;;;5087543;28;19916;-71
2023/09/05 04:48:54;;;;;;;;;;;;;;;;;;5109517;27;19922;-71
2023/09/05 04:51:20;;;;;;;;;;;;;;;;;;5108559;28;20452;-71
2023/09/05 04:54:58;;;;;;;;;;;;;;;;;;5090929;27;19918;-71
2023/09/05 04:57:24;;;;;;;;;;;;;;;;;;5091256;28;20003;-71
2023/09/05 05:00:04;;;;;;;;;;;;;;;;;;5117359;27;19915;-70
2023/09/05 05:04:05;;;;;;;;;;;;;;;;;;5091194;27;19913;-71
2023/09/05 05:06:31;;;;;;;;;;;;;;;;;;5091342;28;20003;-71
2023/09/05 05:08:57;;;;;;;;;;;;;;;;;;5090807;28;19909;-71
2023/09/05 05:11:23;;;;;;;;;;;;;;;;;;5089805;28;19917;-71
2023/09/05 05:13:49;;;;;;;;;;;;;;;;;;5090564;28;19912;-69
2023/09/05 05:16:15;;;;;;;;;;;;;;;;;;5089509;28;19908;-70
2023/09/05 05:20:37;;;;;;;;;;;;;;;;;;5090063;27;19917;-70
2023/09/05 05:23:07;;;;;;;;;;;;;;;;;;5086275;28;19931;-71
2023/09/05 05:25:45;;;;;;;;;;;;;;;;;;5089344;27;19916;-68
2023/09/05 05:28:11;;;;;;;;;;;;;;;;;;5088794;28;19939;-69
2023/09/05 05:30:37;;;;;;;;;;;;;;;;;;5073240;28;19920;-73
2023/09/05 05:33:03;;;;;;;;;;;;;;;;;;5075690;28;20098;-72
2023/09/05 05:36:10;;;;;;;;;;;;;;;;;;5096405;27;19916;-71
2023/09/05 05:38:36;;;;;;;;;;;;;;;;;;5098442;28;19919;-68
2023/09/05 05:42:26;;;;;;;;;;;;;;;;;;5081064;28;20297;-78
2023/09/05 05:45:28;;;;;;;;;;;;;;;;;;5104725;27;20414;-72
2023/09/05 05:49:05;;;;;;;;;;;;;;;;;;5081077;27;19947;-72
2023/09/05 05:51:55;;;;;;;;;;;;;;;;;;5075462;28;20436;-69
2023/09/05 05:54:21;;;;;;;;;;;;;;;;;;5067408;28;20315;-76
2023/09/05 05:56:47;;;;;;;;;;;;;;;;;;5068129;28;19999;-73
2023/09/05 05:59:13;;;;;;;;;;;;;;;;;;5078734;28;20000;-74
2023/09/05 06:01:39;;;;;;;;;;;;;;;;;;5067192;28;19939;-69
2023/09/05 06:04:19;;;;;;;;;;;;;;;;;;5089954;27;19916;-69
2023/09/05 06:07:51;;;;;;;;;;;;;;;;;;5108935;27;19926;-70
2023/09/05 06:11:24;;;;;;;;;;;;;;;;;;5064442;28;20288;-71
2023/09/05 06:14:30;;;;;;;;;;;;;;;;;;5100141;27;19920;-70
2023/09/05 06:21:58;;;;;;;;;;;;;;;;;;5108576;27;20588;-71
2023/09/05 06:24:24;;;;;;;;;;;;;;;;;;5107650;28;20276;-69
2023/09/05 06:27:19;;;;;;;;;;;;;;;;;;5108951;27;20388;-69
2023/09/05 06:29:45;;;;;;;;;;;;;;;;;;5109973;28;19918;-69
2023/09/05 06:32:35;;;;;;;;;;;;;;;;;;5106353;27;19926;-71
2023/09/05 06:36:47;;;;;;;;;;;;;;;;;;5085021;27;19917;-67
2023/09/05 06:42:44;;;;;;;;;;;;;;;;;;5085676;27;20594;-73
2023/09/05 06:45:10;;;;;;;;;;;;;;;;;;5081873;28;19919;-72
2023/09/05 06:49:57;;;;;;;;;;;;;;;;;;5086091;27;19917;-72
2023/09/05 06:52:26;;;;;;;;;;;;;;;;;;5078401;28;19926;-73
2023/09/05 06:54:52;;;;;;;;;;;;;;;;;;5067433;28;19916;-73
2023/09/05 06:59:29;;;;;;;;;;;;;;;;;;5107456;27;19927;-73
2023/09/05 07:03:47;;;;;;;;;;;;;;;;;;5086052;27;20402;-73
2023/09/05 07:06:18;;;;;;;;;;;;;;;;;;5084555;28;19912;-72
2023/09/05 07:09:25;;;;;;;;;;;;;;;;;;5086052;27;19920;-71
2023/09/05 07:13:37;;;;;;;;;;;;;;;;;;5085402;27;19920;-69
2023/09/05 07:16:03;;;;;;;;;;;;;;;;;;5080211;28;19912;-72
2023/09/05 07:18:29;;;;;;;;;;;;;;;;;;5087246;28;20369;-71
2023/09/05 07:21:37;;;;;;;;;;;;;;;;;;5158703;27;19931;-70
2023/09/05 07:24:03;;;;;;;;;;;;;;;;;;5148623;27;19911;-70
2023/09/05 07:26:29;;;;;;;;;;;;;;;;;;5135418;27;19912;-71
2023/09/05 07:28:55;;;;;;;;;;;;;;;;;;5137114;27;20006;-70
2023/09/05 07:31:22;;;;;;;;;;;;;;;;;;5147379;27;20007;-69
2023/09/05 07:36:15;;;;;;;;;;;;;;;;;;5084016;28;20484;-70
2023/09/05 07:38:41;;;;;;;;;;;;;;;;;;5082618;28;19913;-68
2023/09/05 07:41:09;;;;;;;;;;;;;;;;;;5083640;28;19916;-68
2023/09/05 07:45:25;;;;;;;;;;;;;;;;;;5083152;27;19923;-69
2023/09/05 07:47:52;;;;;;;;;;;;;;;;;;5085120;28;19916;-71
2023/09/05 07:51:35;;;;;;;;;;;;;;;;;;5147621;27;20374;-69
2023/09/05 07:54:08;;;;;;;;;;;;;;;;;;5149030;27;19921;-70
2023/09/05 07:58:41;;;;;;;;;;;;;;;;;;5086447;27;19927;-69
2023/09/05 08:01:09;;;;;;;;;;;;;;;;;;5086752;28;19913;-69
2023/09/05 08:03:35;;;;;;;;;;;;;;;;;;5086741;28;19957;-69
2023/09/05 08:06:01;;;;;;;;;;;;;;;;;;5084994;28;19920;-69
2023/09/05 08:08:27;;;;;;;;;;;;;;;;;;5086542;28;19931;-68
2023/09/05 08:10:53;;;;;;;;;;;;;;;;;;5076110;28;19970;-69
2023/09/05 08:13:19;;;;;;;;;;;;;;;;;;5086824;28;19917;-69
2023/09/05 08:15:45;;;;;;;;;;;;;;;;;;5081413;28;20004;-68
2023/09/05 08:18:45;;;;;;;;;;;;;;;;;;5105420;27;19995;-67
2023/09/05 08:21:33;;;;;;;;;;;;;;;;;;5063724;28;19916;-69
2023/09/05 08:23:59;;;;;;;;;;;;;;;;;;5063372;28;19928;-70
2023/09/05 08:26:25;;;;;;;;;;;;;;;;;;5061636;28;19920;-69
2023/09/05 08:28:51;;;;;;;;;;;;;;;;;;5052247;28;20629;-66
2023/09/05 08:31:17;;;;;;;;;;;;;;;;;;5064343;28;19920;-67
2023/09/05 08:33:43;;;;;;;;;;;;;;;;;;5068710;28;20276;-68
2023/09/05 08:36:09;;;;;;;;;;;;;;;;;;5068577;28;20003;-66
2023/09/05 08:38:37;;;;;;;;;;;;;;;;;;5067602;28;20016;-68
2023/09/05 08:41:04;;;;;;;;;;;;;;;;;;5069263;28;20003;-68
2023/09/05 08:43:30;;;;;;;;;;;;;;;;;;5069491;28;19913;-67
2023/09/05 08:45:56;;;;;;;;;;;;;;;;;;5056577;28;19920;-70
2023/09/05 08:48:22;;;;;;;;;;;;;;;;;;5065538;28;19920;-67
2023/09/05 08:50:48;;;;;;;;;;;;;;;;;;5068247;28;19995;-68
2023/09/05 08:54:25;;;;;;;;;;;;;;;;;;5108577;27;19922;-68
2023/09/05 08:57:47;;;;;;;;;;;;;;;;;;5077599;28;19939;-67
2023/09/05 09:02:11;;;;;;;;;;;;;;;;;;5081999;27;20440;-67
2023/09/05 09:05:23;;;;;;;;;;;;;;;;;;5108519;27;19916;-69
2023/09/05 09:07:49;;;;;;;;;;;;;;;;;;5091896;28;19926;-68
2023/09/05 09:10:15;;;;;;;;;;;;;;;;;;5107126;28;19934;-68
2023/09/05 09:12:41;;;;;;;;;;;;;;;;;;5083502;28;19913;-69
2023/09/05 09:15:09;;;;;;;;;;;;;;;;;;5083082;28;19958;-69
2023/09/05 09:17:34;;;;;;;;;;;;;;;;;;5087876;28;19959;-68
2023/09/05 09:20:00;;;;;;;;;;;;;;;;;;5087887;28;20438;-68
2023/09/05 09:22:27;;;;;;;;;;;;;;;;;;5086113;28;21372;-69
2023/09/05 09:24:53;;;;;;;;;;;;;;;;;;5081398;28;19950;-70
2023/09/05 09:28:54;;;;;;;;;;;;;;;;;;5082966;27;20296;-68
2023/09/05 09:31:21;;;;;;;;;;;;;;;;;;5086757;28;20431;-68
2023/09/05 09:33:47;;;;;;;;;;;;;;;;;;5085306;28;19915;-68
2023/09/05 09:36:13;;;;;;;;;;;;;;;;;;5082341;28;20339;-68
2023/09/05 09:38:39;;;;;;;;;;;;;;;;;;5085119;28;19924;-68
2023/09/05 09:41:09;;;;;;;;;;;;;;;;;;5085220;28;19915;-68
2023/09/05 09:43:35;;;;;;;;;;;;;;;;;;5085938;28;19919;-68
2023/09/05 09:46:44;;;;;;;;;;;;;;;;;;5086083;27;19923;-69
2023/09/05 09:49:10;;;;;;;;;;;;;;;;;;5085673;28;19912;-67
2023/09/05 09:51:36;;;;;;;;;;;;;;;;;;5088315;28;19908;-68
2023/09/05 09:54:22;;;;;;;;;;;;;;;;;;5087687;27;19920;-68
2023/09/05 09:56:48;;;;;;;;;;;;;;;;;;5083426;28;19913;-68
2023/09/05 09:59:14;;;;;;;;;;;;;;;;;;5067762;28;19967;-70
2023/09/05 10:02:45;;;;;;;;;;;;;;;;;;5091546;27;19920;-68
2023/09/05 10:05:11;;;;;;;;;;;;;;;;;;5088058;28;19955;-69
2023/09/05 10:07:37;;;;;;;;;;;;;;;;;;5091402;28;19912;-70
2023/09/05 10:10:51;;;;;;;;;;;;;;;;;;5129387;27;20463;-68
2023/09/05 10:13:17;;;;;;;;;;;;;;;;;;5096938;28;19981;-67
2023/09/05 10:17:07;;;;;;;;;;;;;;;;;;5086086;27;19917;-68
2023/09/05 10:19:33;;;;;;;;;;;;;;;;;;5065015;28;19912;-67
2023/09/05 10:21:59;;;;;;;;;;;;;;;;;;5060926;28;19913;-67
2023/09/05 10:24:25;;;;;;;;;;;;;;;;;;5065085;28;19913;-68
2023/09/05 10:26:51;;;;;;;;;;;;;;;;;;5065208;28;19913;-68
2023/09/05 10:29:17;;;;;;;;;;;;;;;;;;5064612;28;19952;-69
2023/09/05 10:31:43;;;;;;;;;;;;;;;;;;5067136;28;20019;-69
2023/09/05 10:34:09;;;;;;;;;;;;;;;;;;5068334;28;20423;-69
2023/09/05 10:36:35;;;;;;;;;;;;;;;;;;5065376;28;20288;-68
2023/09/05 10:39:01;;;;;;;;;;;;;;;;;;5046733;28;20313;-68
2023/09/05 10:41:27;;;;;;;;;;;;;;;;;;5065747;28;19920;-68
2023/09/05 10:43:53;;;;;;;;;;;;;;;;;;5066293;28;19913;-68
2023/09/05 10:48:16;;;;;;;;;;;;;;;;;;5086808;27;19917;-67
2023/09/05 10:50:42;;;;;;;;;;;;;;;;;;5087723;28;19919;-67
2023/09/05 10:53:11;;;;;;;;;;;;;;;;;;5089645;28;20336;-67
2023/09/05 10:55:44;;;;;;;;;;;;;;;;;;5086653;28;19971;-66
2023/09/05 10:58:10;;;;;;;;;;;;;;;;;;5082483;28;20017;-67
2023/09/05 11:00:38;;;;;;;;;;;;;;;;;;5082745;28;19924;-68
2023/09/05 11:03:08;;;;;;;;;;;;;;;;;;5086282;28;19919;-67
2023/09/05 11:05:34;;;;;;;;;;;;;;;;;;5093148;28;19938;-67
2023/09/05 11:08:01;;;;;;;;;;;;;;;;;;5089635;28;19924;-67
2023/09/05 11:10:27;;;;;;;;;;;;;;;;;;5066453;28;19912;-66
2023/09/05 11:12:55;;;;;;;;;;;;;;;;;;5073259;28;20387;-67
2023/09/05 11:15:21;;;;;;;;;;;;;;;;;;5086025;28;20305;-67
2023/09/05 11:17:47;;;;;;;;;;;;;;;;;;5086455;28;19965;-66
2023/09/05 11:20:14;;;;;;;;;;;;;;;;;;5086171;28;19908;-71
2023/09/05 11:22:40;;;;;;;;;;;;;;;;;;5085774;28;19915;-69
2023/09/05 11:25:09;;;;;;;;;;;;;;;;;;5088258;28;20514;-67
2023/09/05 11:27:36;;;;;;;;;;;;;;;;;;5087161;28;20015;-67
2023/09/05 11:30:03;;;;;;;;;;;;;;;;;;5090827;28;19928;-66
2023/09/05 11:32:29;;;;;;;;;;;;;;;;;;5087238;28;19920;-66
2023/09/05 11:34:55;;;;;;;;;;;;;;;;;;5088178;28;19909;-66
2023/09/05 11:37:22;;;;;;;;;;;;;;;;;;5088302;28;19919;-66
2023/09/05 11:39:48;;;;;;;;;;;;;;;;;;5088762;28;19908;-68
2023/09/05 11:42:14;;;;;;;;;;;;;;;;;;5087926;28;20440;-67
2023/09/05 11:44:40;;;;;;;;;;;;;;;;;;5092708;28;19919;-69
2023/09/05 11:47:06;;;;;;;;;;;;;;;;;;5088679;28;20400;-67
2023/09/05 11:49:32;;;;;;;;;;;;;;;;;;5088486;28;19912;-68
2023/09/05 11:52:00;;;;;;;;;;;;;;;;;;5089267;28;20364;-68
2023/09/05 11:54:25;;;;;;;;;;;;;;;;;;5089706;28;19995;-67
2023/09/05 11:56:51;;;;;;;;;;;;;;;;;;5088575;28;19970;-68
2023/09/05 11:59:17;;;;;;;;;;;;;;;;;;5077338;28;19912;-68
2023/09/05 12:01:43;;;;;;;;;;;;;;;;;;5074577;28;20356;-68
2023/09/05 12:04:09;;;;;;;;;;;;;;;;;;5075760;28;20050;-67
2023/09/05 12:06:35;;;;;;;;;;;;;;;;;;5075014;28;19916;-67
2023/09/05 12:09:01;;;;;;;;;;;;;;;;;;5074688;28;19931;-67
2023/09/05 12:11:27;;;;;;;;;;;;;;;;;;5075064;28;20011;-68
2023/09/05 12:13:53;;;;;;;;;;;;;;;;;;5075447;28;20019;-68
2023/09/05 12:17:22;;;;;;;;;;;;;;;;;;5070105;28;19927;-66
2023/09/05 12:19:48;;;;;;;;;;;;;;;;;;5070079;28;20265;-66
2023/09/05 12:22:15;;;;;;;;;;;;;;;;;;5066840;28;20396;-66
2023/09/05 12:24:41;;;;;;;;;;;;;;;;;;5064789;28;19916;-66
2023/09/05 12:27:07;;;;;;;;;;;;;;;;;;5048969;28;19916;-67
2023/09/05 12:29:36;;;;;;;;;;;;;;;;;;5049228;28;19909;-67
2023/09/05 12:32:02;;;;;;;;;;;;;;;;;;5056143;28;19921;-66
2023/09/05 12:34:28;;;;;;;;;;;;;;;;;;5063923;28;19913;-66
2023/09/05 12:36:54;;;;;;;;;;;;;;;;;;5068114;28;19959;-66
2023/09/05 12:39:20;;;;;;;;;;;;;;;;;;5068383;28;19909;-66
2023/09/05 12:41:46;;;;;;;;;;;;;;;;;;5063565;28;20281;-67
2023/09/05 12:44:12;;;;;;;;;;;;;;;;;;5049220;28;20745;-67
2023/09/05 12:46:41;;;;;;;;;;;;;;;;;;5051428;28;19913;-67
2023/09/05 12:49:07;;;;;;;;;;;;;;;;;;5049884;28;19913;-69
2023/09/05 12:51:33;;;;;;;;;;;;;;;;;;5050683;28;19927;-69
2023/09/05 12:54:00;;;;;;;;;;;;;;;;;;5049345;28;19913;-68
2023/09/05 12:56:26;;;;;;;;;;;;;;;;;;5047359;28;19917;-67
2023/09/05 12:58:52;;;;;;;;;;;;;;;;;;5050404;28;19909;-69
2023/09/05 13:01:18;;;;;;;;;;;;;;;;;;5049528;28;19913;-68
2023/09/05 13:03:46;;;;;;;;;;;;;;;;;;5053122;28;19909;-71
2023/09/05 13:06:12;;;;;;;;;;;;;;;;;;5068204;28;19916;-71
2023/09/05 13:08:38;;;;;;;;;;;;;;;;;;5069881;28;19908;-71
2023/09/05 13:11:04;;;;;;;;;;;;;;;;;;5069991;28;19909;-71
2023/09/05 13:13:30;;;;;;;;;;;;;;;;;;5069662;28;19916;-71
2023/09/05 13:15:55;;;;;;;;;;;;;;;;;;5068028;28;19920;-71
2023/09/05 13:18:21;;;;;;;;;;;;;;;;;;5067853;28;19913;-71
2023/09/05 13:20:47;;;;;;;;;;;;;;;;;;5067382;28;19975;-70
2023/09/05 13:23:15;;;;;;;;;;;;;;;;;;5067839;28;19909;-70
2023/09/05 13:25:41;;;;;;;;;;;;;;;;;;5068114;28;19909;-71
2023/09/05 13:28:07;;;;;;;;;;;;;;;;;;5057328;28;19909;-70
2023/09/05 13:30:33;;;;;;;;;;;;;;;;;;5055382;28;19916;-71
2023/09/05 13:32:59;;;;;;;;;;;;;;;;;;5056290;28;19909;-71
2023/09/05 13:35:25;;;;;;;;;;;;;;;;;;5055886;28;20366;-72
2023/09/05 13:37:51;;;;;;;;;;;;;;;;;;5056766;28;20455;-71
2023/09/05 13:40:17;;;;;;;;;;;;;;;;;;5055964;28;20323;-70
2023/09/05 13:42:43;;;;;;;;;;;;;;;;;;5056184;28;20365;-71
2023/09/05 13:45:09;;;;;;;;;;;;;;;;;;5056155;28;19908;-71
2023/09/05 13:47:37;;;;;;;;;;;;;;;;;;5055683;28;19997;-71
2023/09/05 13:53:20;;;;;;;;;;;;;;;;;;5091653;27;20364;-72
2023/09/05 13:55:46;;;;;;;;;;;;;;;;;;5090819;28;20384;-72
2023/09/05 13:58:12;;;;;;;;;;;;;;;;;;5091201;28;20261;-72
2023/09/05 14:00:38;;;;;;;;;;;;;;;;;;5091032;28;19915;-72
2023/09/05 14:03:04;;;;;;;;;;;;;;;;;;5090646;28;19999;-72
2023/09/05 14:05:30;;;;;;;;;;;;;;;;;;5091111;28;19908;-72
2023/09/05 14:09:31;;;;;;;;;;;;;;;;;;5152492;27;19917;-71
2023/09/05 14:13:44;;;;;;;;;;;;;;;;;;5092018;27;19917;-71
2023/09/05 14:16:10;;;;;;;;;;;;;;;;;;5090825;28;20002;-71
2023/09/05 14:18:36;;;;;;;;;;;;;;;;;;5091284;28;19912;-71
2023/09/05 14:21:04;;;;;;;;;;;;;;;;;;5091093;28;19915;-72
2023/09/05 14:23:29;;;;;;;;;;;;;;;;;;5090796;28;19915;-71
2023/09/05 14:25:55;;;;;;;;;;;;;;;;;;5091682;28;20275;-72
2023/09/05 14:28:24;;;;;;;;;;;;;;;;;;5091141;28;20265;-71
2023/09/05 14:30:50;;;;;;;;;;;;;;;;;;5090610;28;19909;-71
2023/09/05 14:33:16;;;;;;;;;;;;;;;;;;5090915;28;20380;-71
2023/09/05 14:36:53;;;;;;;;;;;;;;;;;;5090917;27;19922;-71
2023/09/05 14:39:19;;;;;;;;;;;;;;;;;;5091334;28;19995;-71
2023/09/05 14:44:04;;;;;;;;;;;;;;;;;;5152753;27;20005;-71
2023/09/05 14:46:30;;;;;;;;;;;;;;;;;;5152738;27;19918;-71
2023/09/05 14:48:56;;;;;;;;;;;;;;;;;;5134193;27;19907;-71
2023/09/05 14:51:23;;;;;;;;;;;;;;;;;;5151981;27;19908;-71
2023/09/05 14:53:48;;;;;;;;;;;;;;;;;;5152813;27;19915;-71
2023/09/05 14:56:14;;;;;;;;;;;;;;;;;;5152633;27;20347;-71
2023/09/05 14:58:40;;;;;;;;;;;;;;;;;;5152268;27;20433;-71
2023/09/05 15:04:21;;;;;;;;;;;;;;;;;;5112466;27;19938;-71
2023/09/05 15:06:47;;;;;;;;;;;;;;;;;;5111294;28;20441;-72
2023/09/05 15:09:13;;;;;;;;;;;;;;;;;;5111571;28;19908;-71
2023/09/05 15:11:39;;;;;;;;;;;;;;;;;;5111133;28;19930;-72
2023/09/05 15:14:05;;;;;;;;;;;;;;;;;;5111486;28;19955;-72
2023/09/05 15:16:31;;;;;;;;;;;;;;;;;;5111561;28;19920;-72
2023/09/05 15:18:57;;;;;;;;;;;;;;;;;;5111000;28;19912;-72
2023/09/05 15:21:35;;;;;;;;;;;;;;;;;;5092149;27;19917;-71
2023/09/05 15:24:05;;;;;;;;;;;;;;;;;;5091310;28;20006;-71
2023/09/05 15:26:33;;;;;;;;;;;;;;;;;;5090814;28;19943;-71
2023/09/05 15:29:29;;;;;;;;;;;;;;;;;;5112194;27;19912;-70
2023/09/05 15:31:55;;;;;;;;;;;;;;;;;;5111692;28;20347;-70
2023/09/05 15:34:21;;;;;;;;;;;;;;;;;;5111146;28;19915;-72
2023/09/05 15:37:54;;;;;;;;;;;;;;;;;;5092086;27;19916;-71
2023/09/05 15:40:20;;;;;;;;;;;;;;;;;;5090894;28;20011;-72
2023/09/05 15:42:46;;;;;;;;;;;;;;;;;;5091250;28;19951;-71
2023/09/05 15:45:12;;;;;;;;;;;;;;;;;;5091264;28;19955;-72
2023/09/05 15:47:38;;;;;;;;;;;;;;;;;;5090773;28;19977;-73
2023/09/05 15:50:04;;;;;;;;;;;;;;;;;;5091211;28;19945;-71
2023/09/05 15:52:30;;;;;;;;;;;;;;;;;;5091104;28;19912;-72
2023/09/05 15:54:56;;;;;;;;;;;;;;;;;;5090577;28;19909;-71
2023/09/05 15:57:22;;;;;;;;;;;;;;;;;;5090990;28;20018;-72
2023/09/05 15:59:51;;;;;;;;;;;;;;;;;;5091361;28;20429;-72
2023/09/05 16:02:17;;;;;;;;;;;;;;;;;;5090552;28;19909;-72
2023/09/05 16:04:43;;;;;;;;;;;;;;;;;;5089617;28;19916;-72
2023/09/05 16:07:11;;;;;;;;;;;;;;;;;;5090770;28;19952;-71
2023/09/05 16:10:06;;;;;;;;;;;;;;;;;;5111971;27;19916;-71
2023/09/05 16:12:32;;;;;;;;;;;;;;;;;;5111570;28;20006;-70
2023/09/05 16:15:00;;;;;;;;;;;;;;;;;;5111141;28;19961;-71
2023/09/05 16:19:39;;;;;;;;;;;;;;;;;;5112563;27;19916;-71
2023/09/05 16:22:05;;;;;;;;;;;;;;;;;;5111198;28;20011;-71
2023/09/05 16:24:31;;;;;;;;;;;;;;;;;;5111736;28;19908;-71
2023/09/05 16:27:25;;;;;;;;;;;;;;;;;;5071451;28;19916;-71
2023/09/05 16:29:53;;;;;;;;;;;;;;;;;;5070862;28;19996;-71
2023/09/05 16:32:57;;;;;;;;;;;;;;;;;;5152900;27;20005;-72
2023/09/05 16:36:52;;;;;;;;;;;;;;;;;;5070917;28;19923;-71
2023/09/05 16:39:18;;;;;;;;;;;;;;;;;;5071042;28;20351;-71
2023/09/05 16:41:43;;;;;;;;;;;;;;;;;;5070945;28;19908;-71
2023/09/05 16:44:09;;;;;;;;;;;;;;;;;;5070516;28;19909;-72
2023/09/05 16:46:35;;;;;;;;;;;;;;;;;;5070847;28;19936;-72
2023/09/05 16:50:44;;;;;;;;;;;;;;;;;;5091545;27;19923;-72
2023/09/05 16:53:10;;;;;;;;;;;;;;;;;;5091303;28;20343;-71
2023/09/05 16:56:59;;;;;;;;;;;;;;;;;;5111913;27;19916;-72
2023/09/05 16:59:25;;;;;;;;;;;;;;;;;;5111302;28;20026;-71
2023/09/05 17:02:17;;;;;;;;;;;;;;;;;;5112546;27;19916;-71
2023/09/05 17:04:43;;;;;;;;;;;;;;;;;;5111768;28;20368;-71
2023/09/05 17:07:08;;;;;;;;;;;;;;;;;;5111654;28;20011;-71
2023/09/05 17:09:34;;;;;;;;;;;;;;;;;;5111070;28;19908;-71
2023/09/05 17:12:00;;;;;;;;;;;;;;;;;;5111097;28;20332;-70
2023/09/05 17:14:28;;;;;;;;;;;;;;;;;;5111496;28;20276;-71
2023/09/05 17:16:54;;;;;;;;;;;;;;;;;;5111406;28;19908;-70
2023/09/05 17:19:20;;;;;;;;;;;;;;;;;;5110843;28;20101;-70
2023/09/05 17:21:46;;;;;;;;;;;;;;;;;;5111200;28;19920;-70
2023/09/05 17:24:12;;;;;;;;;;;;;;;;;;5111094;28;20279;-70
2023/09/05 17:29:21;;;;;;;;;;;;;;;;;;5091167;27;19919;-70
2023/09/05 17:31:47;;;;;;;;;;;;;;;;;;5090290;28;19912;-71
2023/09/05 17:38:21;;;;;;;;;;;;;;;;;;5109670;27;19916;-71
2023/09/05 17:42:19;;;;;;;;;;;;;;;;;;5091007;27;19923;-71
2023/09/05 17:44:45;;;;;;;;;;;;;;;;;;5091075;28;20338;-72
2023/09/05 17:47:12;;;;;;;;;;;;;;;;;;5090843;28;19998;-72
2023/09/05 17:49:38;;;;;;;;;;;;;;;;;;5091312;28;20007;-72
2023/09/05 17:53:59;;;;;;;;;;;;;;;;;;5132074;27;20036;-70
2023/09/05 17:56:25;;;;;;;;;;;;;;;;;;5131853;28;20379;-70
2023/09/05 17:58:51;;;;;;;;;;;;;;;;;;5131950;28;19908;-70
2023/09/05 18:04:51;;;;;;;;;;;;;;;;;;5070945;28;19923;-69
2023/09/05 18:07:17;;;;;;;;;;;;;;;;;;5071153;28;19959;-70
2023/09/05 18:09:44;;;;;;;;;;;;;;;;;;5070533;28;20334;-70
2023/09/05 18:15:18;;;;;;;;;;;;;;;;;;5091045;27;19916;-70
2023/09/05 18:17:44;;;;;;;;;;;;;;;;;;5091234;28;20007;-70
2023/09/05 18:20:10;;;;;;;;;;;;;;;;;;5091318;28;19915;-69
2023/09/05 18:22:36;;;;;;;;;;;;;;;;;;5090764;28;20025;-72
2023/09/05 18:25:02;;;;;;;;;;;;;;;;;;5091100;28;19915;-70
2023/09/05 18:27:28;;;;;;;;;;;;;;;;;;5091133;28;19919;-70
2023/09/05 18:29:54;;;;;;;;;;;;;;;;;;5090750;28;20395;-70
2023/09/05 18:32:20;;;;;;;;;;;;;;;;;;5090987;28;19908;-71
2023/09/05 18:34:46;;;;;;;;;;;;;;;;;;5090750;28;19917;-72
2023/09/05 18:37:12;;;;;;;;;;;;;;;;;;5090575;28;20452;-71
2023/09/05 18:39:38;;;;;;;;;;;;;;;;;;5090631;28;19954;-71
2023/09/05 18:42:05;;;;;;;;;;;;;;;;;;5091150;28;19954;-71
2023/09/05 18:44:31;;;;;;;;;;;;;;;;;;5090726;28;19915;-72
2023/09/05 18:46:59;;;;;;;;;;;;;;;;;;5090898;28;20345;-71
2023/09/05 18:49:25;;;;;;;;;;;;;;;;;;5090734;28;19969;-71
2023/09/05 18:54:16;;;;;;;;;;;;;;;;;;5091752;27;19913;-70
2023/09/05 19:04:53;;;;;;;;;;;;;;;;;;5152564;27;19911;-71
2023/09/05 19:07:20;;;;;;;;;;;;;;;;;;5153097;27;20394;-71
2023/09/05 19:11:13;;;;;;;;;;;;;;;;;;5152707;27;20010;-71
2023/09/05 19:17:44;;;;;;;;;;;;;;;;;;5153031;27;20002;-70
2023/09/05 19:20:10;;;;;;;;;;;;;;;;;;5153122;27;19947;-71
2023/09/05 19:22:38;;;;;;;;;;;;;;;;;;5152861;27;19914;-70
2023/09/05 19:25:04;;;;;;;;;;;;;;;;;;5152485;27;19907;-70
2023/09/05 19:28:05;;;;;;;;;;;;;;;;;;5111803;27;20379;-72
2023/09/05 19:30:31;;;;;;;;;;;;;;;;;;5111838;28;20002;-72
2023/09/05 19:33:26;;;;;;;;;;;;;;;;;;5091392;27;19916;-70
2023/09/05 19:35:52;;;;;;;;;;;;;;;;;;5091379;28;20344;-73
2023/09/05 19:38:19;;;;;;;;;;;;;;;;;;5091064;28;19947;-70
2023/09/05 19:44:25;;;;;;;;;;;;;;;;;;5092290;27;20375;-71
2023/09/05 19:46:51;;;;;;;;;;;;;;;;;;5091122;28;19912;-71